sensor_id;sensor_type;location;lat;lon;timestamp;P1;durP1;ratioP1;P2;durP2;ratioP2
19374;SDS011;9823;50.936;4.046;2023-02-22T00:00:37;317.93;;;29.40;;
19374;SDS011;9823;50.936;4.046;2023-02-22T00:03:13;291.30;;;30.10;;
19374;SDS011;9823;50.936;4.046;2023-02-22T00:05:43;259.67;;;26.07;;
19374;SDS011;9823;50.936;4.046;2023-02-22T00:08:13;211.03;;;23.73;;
19374;SDS011;9823;50.936;4.046;2023-02-22T00:10:39;172.23;;;22.37;;
19374;SDS011;9823;50.936;4.046;2023-02-22T00:13:06;183.93;;;24.33;;
19374;SDS011;9823;50.936;4.046;2023-02-22T00:15:33;438.67;;;43.03;;
19374;SDS011;9823;50.936;4.046;2023-02-22T00:17:59;202.10;;;26.37;;
19374;SDS011;9823;50.936;4.046;2023-02-22T00:20:26;338.20;;;29.47;;
19374;SDS011;9823;50.936;4.046;2023-02-22T00:22:52;182.97;;;22.30;;
19374;SDS011;9823;50.936;4.046;2023-02-22T00:25:23;178.37;;;23.07;;
19374;SDS011;9823;50.936;4.046;2023-02-22T00:27:52;234.63;;;26.47;;
19374;SDS011;9823;50.936;4.046;2023-02-22T00:30:19;259.60;;;26.03;;
19374;SDS011;9823;50.936;4.046;2023-02-22T00:32:45;163.77;;;23.87;;
19374;SDS011;9823;50.936;4.046;2023-02-22T00:35:15;276.93;;;27.17;;
19374;SDS011;9823;50.936;4.046;2023-02-22T00:37:45;273.93;;;27.63;;
19374;SDS011;9823;50.936;4.046;2023-02-22T00:40:15;287.53;;;30.10;;
19374;SDS011;9823;50.936;4.046;2023-02-22T00:42:41;194.67;;;25.83;;
19374;SDS011;9823;50.936;4.046;2023-02-22T00:45:10;175.33;;;25.23;;
19374;SDS011;9823;50.936;4.046;2023-02-22T00:47:38;111.17;;;22.30;;
19374;SDS011;9823;50.936;4.046;2023-02-22T00:50:04;281.40;;;29.57;;
19374;SDS011;9823;50.936;4.046;2023-02-22T00:52:30;247.13;;;27.67;;
19374;SDS011;9823;50.936;4.046;2023-02-22T00:54:56;307.63;;;29.57;;
19374;SDS011;9823;50.936;4.046;2023-02-22T00:57:24;169.30;;;25.67;;
19374;SDS011;9823;50.936;4.046;2023-02-22T00:59:50;115.47;;;23.17;;
19374;SDS011;9823;50.936;4.046;2023-02-22T01:02:16;169.33;;;25.97;;
19374;SDS011;9823;50.936;4.046;2023-02-22T01:04:42;159.37;;;24.70;;
19374;SDS011;9823;50.936;4.046;2023-02-22T01:07:08;167.93;;;27.23;;
19374;SDS011;9823;50.936;4.046;2023-02-22T01:09:36;104.40;;;22.53;;
19374;SDS011;9823;50.936;4.046;2023-02-22T01:12:03;286.13;;;31.73;;
19374;SDS011;9823;50.936;4.046;2023-02-22T01:14:32;169.90;;;25.90;;
19374;SDS011;9823;50.936;4.046;2023-02-22T01:16:58;193.63;;;26.47;;
19374;SDS011;9823;50.936;4.046;2023-02-22T01:19:24;110.43;;;22.80;;
19374;SDS011;9823;50.936;4.046;2023-02-22T01:21:50;136.23;;;23.10;;
19374;SDS011;9823;50.936;4.046;2023-02-22T01:24:16;132.80;;;23.20;;
19374;SDS011;9823;50.936;4.046;2023-02-22T01:26:43;131.67;;;23.37;;
19374;SDS011;9823;50.936;4.046;2023-02-22T01:29:13;148.90;;;22.00;;
19374;SDS011;9823;50.936;4.046;2023-02-22T01:31:40;158.00;;;23.43;;
19374;SDS011;9823;50.936;4.046;2023-02-22T01:34:08;101.63;;;22.00;;
19374;SDS011;9823;50.936;4.046;2023-02-22T01:36:35;104.93;;;23.47;;
19374;SDS011;9823;50.936;4.046;2023-02-22T01:39:01;92.87;;;21.87;;
19374;SDS011;9823;50.936;4.046;2023-02-22T01:41:27;82.90;;;21.83;;
19374;SDS011;9823;50.936;4.046;2023-02-22T01:43:53;87.63;;;22.47;;
19374;SDS011;9823;50.936;4.046;2023-02-22T01:46:25;63.87;;;22.00;;
19374;SDS011;9823;50.936;4.046;2023-02-22T01:49:00;87.30;;;21.83;;
19374;SDS011;9823;50.936;4.046;2023-02-22T01:51:30;69.67;;;21.07;;
19374;SDS011;9823;50.936;4.046;2023-02-22T01:54:15;64.00;;;21.13;;
19374;SDS011;9823;50.936;4.046;2023-02-22T01:56:47;73.70;;;21.13;;
19374;SDS011;9823;50.936;4.046;2023-02-22T01:59:15;80.73;;;23.27;;
19374;SDS011;9823;50.936;4.046;2023-02-22T02:01:42;78.93;;;21.50;;
19374;SDS011;9823;50.936;4.046;2023-02-22T02:04:26;75.53;;;21.13;;
19374;SDS011;9823;50.936;4.046;2023-02-22T02:06:53;57.43;;;21.13;;
19374;SDS011;9823;50.936;4.046;2023-02-22T02:09:29;64.40;;;21.33;;
19374;SDS011;9823;50.936;4.046;2023-02-22T02:11:57;68.27;;;21.50;;
19374;SDS011;9823;50.936;4.046;2023-02-22T02:14:25;69.03;;;23.27;;
19374;SDS011;9823;50.936;4.046;2023-02-22T02:16:51;70.63;;;22.20;;
19374;SDS011;9823;50.936;4.046;2023-02-22T02:19:32;87.53;;;22.20;;
19374;SDS011;9823;50.936;4.046;2023-02-22T02:22:49;98.17;;;23.30;;
19374;SDS011;9823;50.936;4.046;2023-02-22T02:27:45;54.67;;;20.40;;
19374;SDS011;9823;50.936;4.046;2023-02-22T02:32:59;61.80;;;20.97;;
19374;SDS011;9823;50.936;4.046;2023-02-22T02:40:46;55.57;;;19.00;;
19374;SDS011;9823;50.936;4.046;2023-02-22T02:45:53;58.73;;;20.70;;
19374;SDS011;9823;50.936;4.046;2023-02-22T02:48:22;62.63;;;21.83;;
19374;SDS011;9823;50.936;4.046;2023-02-22T02:50:53;53.90;;;21.00;;
19374;SDS011;9823;50.936;4.046;2023-02-22T02:53:21;50.97;;;20.07;;
19374;SDS011;9823;50.936;4.046;2023-02-22T02:55:47;54.23;;;19.67;;
19374;SDS011;9823;50.936;4.046;2023-02-22T02:58:20;49.03;;;19.43;;
19374;SDS011;9823;50.936;4.046;2023-02-22T03:00:47;69.27;;;20.13;;
19374;SDS011;9823;50.936;4.046;2023-02-22T03:11:20;54.90;;;18.13;;
19374;SDS011;9823;50.936;4.046;2023-02-22T03:21:55;46.63;;;18.67;;
19374;SDS011;9823;50.936;4.046;2023-02-22T03:24:32;50.03;;;20.77;;
19374;SDS011;9823;50.936;4.046;2023-02-22T03:27:06;52.40;;;20.17;;
19374;SDS011;9823;50.936;4.046;2023-02-22T03:29:34;48.90;;;19.13;;
19374;SDS011;9823;50.936;4.046;2023-02-22T03:32:02;47.27;;;20.43;;
19374;SDS011;9823;50.936;4.046;2023-02-22T03:34:34;48.87;;;20.20;;
19374;SDS011;9823;50.936;4.046;2023-02-22T03:37:16;43.43;;;19.63;;
19374;SDS011;9823;50.936;4.046;2023-02-22T03:39:42;46.47;;;20.20;;
19374;SDS011;9823;50.936;4.046;2023-02-22T03:42:16;42.83;;;18.67;;
19374;SDS011;9823;50.936;4.046;2023-02-22T03:44:43;42.73;;;18.67;;
19374;SDS011;9823;50.936;4.046;2023-02-22T03:47:11;46.80;;;20.30;;
19374;SDS011;9823;50.936;4.046;2023-02-22T03:52:08;43.93;;;18.80;;
19374;SDS011;9823;50.936;4.046;2023-02-22T03:54:36;47.33;;;19.00;;
19374;SDS011;9823;50.936;4.046;2023-02-22T03:57:07;47.40;;;18.80;;
19374;SDS011;9823;50.936;4.046;2023-02-22T03:59:35;42.20;;;19.87;;
19374;SDS011;9823;50.936;4.046;2023-02-22T04:02:01;47.10;;;19.50;;
19374;SDS011;9823;50.936;4.046;2023-02-22T04:04:29;55.53;;;19.27;;
19374;SDS011;9823;50.936;4.046;2023-02-22T04:06:55;45.23;;;19.40;;
19374;SDS011;9823;50.936;4.046;2023-02-22T04:09:24;41.90;;;20.27;;
19374;SDS011;9823;50.936;4.046;2023-02-22T04:11:50;39.30;;;18.63;;
19374;SDS011;9823;50.936;4.046;2023-02-22T04:14:16;46.73;;;19.00;;
19374;SDS011;9823;50.936;4.046;2023-02-22T04:16:44;46.97;;;19.63;;
19374;SDS011;9823;50.936;4.046;2023-02-22T04:19:10;49.93;;;20.53;;
19374;SDS011;9823;50.936;4.046;2023-02-22T04:21:36;43.43;;;18.60;;
19374;SDS011;9823;50.936;4.046;2023-02-22T04:24:02;43.53;;;18.30;;
19374;SDS011;9823;50.936;4.046;2023-02-22T04:26:29;47.20;;;18.57;;
19374;SDS011;9823;50.936;4.046;2023-02-22T04:28:55;43.87;;;18.43;;
19374;SDS011;9823;50.936;4.046;2023-02-22T04:31:21;41.33;;;18.70;;
19374;SDS011;9823;50.936;4.046;2023-02-22T04:33:47;46.47;;;20.73;;
19374;SDS011;9823;50.936;4.046;2023-02-22T04:36:15;54.10;;;23.77;;
19374;SDS011;9823;50.936;4.046;2023-02-22T04:38:48;45.30;;;20.30;;
19374;SDS011;9823;50.936;4.046;2023-02-22T04:41:15;45.77;;;20.40;;
19374;SDS011;9823;50.936;4.046;2023-02-22T04:43:44;42.47;;;17.43;;
19374;SDS011;9823;50.936;4.046;2023-02-22T04:46:10;45.47;;;20.00;;
19374;SDS011;9823;50.936;4.046;2023-02-22T04:48:36;40.50;;;19.00;;
19374;SDS011;9823;50.936;4.046;2023-02-22T04:51:03;46.80;;;19.87;;
19374;SDS011;9823;50.936;4.046;2023-02-22T04:53:29;40.10;;;19.00;;
19374;SDS011;9823;50.936;4.046;2023-02-22T04:55:55;39.77;;;18.93;;
19374;SDS011;9823;50.936;4.046;2023-02-22T04:58:21;44.50;;;20.73;;
19374;SDS011;9823;50.936;4.046;2023-02-22T05:00:47;40.67;;;20.43;;
19374;SDS011;9823;50.936;4.046;2023-02-22T05:03:13;43.13;;;21.00;;
19374;SDS011;9823;50.936;4.046;2023-02-22T05:05:39;42.37;;;19.13;;
19374;SDS011;9823;50.936;4.046;2023-02-22T05:08:05;44.53;;;19.23;;
19374;SDS011;9823;50.936;4.046;2023-02-22T05:10:31;38.47;;;18.20;;
19374;SDS011;9823;50.936;4.046;2023-02-22T05:12:57;39.53;;;18.10;;
19374;SDS011;9823;50.936;4.046;2023-02-22T05:15:23;35.23;;;16.87;;
19374;SDS011;9823;50.936;4.046;2023-02-22T05:17:50;39.40;;;18.90;;
19374;SDS011;9823;50.936;4.046;2023-02-22T05:20:20;37.93;;;17.43;;
19374;SDS011;9823;50.936;4.046;2023-02-22T05:22:47;37.10;;;17.50;;
19374;SDS011;9823;50.936;4.046;2023-02-22T05:25:13;36.40;;;17.63;;
19374;SDS011;9823;50.936;4.046;2023-02-22T05:27:40;34.60;;;17.33;;
19374;SDS011;9823;50.936;4.046;2023-02-22T05:30:06;33.90;;;17.17;;
19374;SDS011;9823;50.936;4.046;2023-02-22T05:32:34;36.27;;;18.97;;
19374;SDS011;9823;50.936;4.046;2023-02-22T05:35:00;35.77;;;17.90;;
19374;SDS011;9823;50.936;4.046;2023-02-22T05:37:26;37.63;;;17.80;;
19374;SDS011;9823;50.936;4.046;2023-02-22T05:39:52;38.60;;;18.47;;
19374;SDS011;9823;50.936;4.046;2023-02-22T05:42:19;36.80;;;16.97;;
19374;SDS011;9823;50.936;4.046;2023-02-22T05:44:46;35.53;;;17.37;;
19374;SDS011;9823;50.936;4.046;2023-02-22T05:47:12;35.33;;;17.40;;
19374;SDS011;9823;50.936;4.046;2023-02-22T05:49:38;37.53;;;17.83;;
19374;SDS011;9823;50.936;4.046;2023-02-22T05:52:04;36.63;;;17.90;;
19374;SDS011;9823;50.936;4.046;2023-02-22T05:54:30;35.97;;;18.13;;
19374;SDS011;9823;50.936;4.046;2023-02-22T05:56:59;40.47;;;17.00;;
19374;SDS011;9823;50.936;4.046;2023-02-22T05:59:25;39.10;;;18.90;;
19374;SDS011;9823;50.936;4.046;2023-02-22T06:01:51;39.47;;;18.13;;
19374;SDS011;9823;50.936;4.046;2023-02-22T06:04:17;37.23;;;16.87;;
19374;SDS011;9823;50.936;4.046;2023-02-22T06:06:48;38.93;;;18.03;;
19374;SDS011;9823;50.936;4.046;2023-02-22T06:09:14;37.13;;;17.07;;
19374;SDS011;9823;50.936;4.046;2023-02-22T06:11:40;34.47;;;16.60;;
19374;SDS011;9823;50.936;4.046;2023-02-22T06:14:06;35.07;;;16.77;;
19374;SDS011;9823;50.936;4.046;2023-02-22T06:16:32;33.23;;;17.27;;
19374;SDS011;9823;50.936;4.046;2023-02-22T06:18:58;35.47;;;18.37;;
19374;SDS011;9823;50.936;4.046;2023-02-22T06:21:24;38.33;;;18.47;;
19374;SDS011;9823;50.936;4.046;2023-02-22T06:23:51;35.97;;;17.73;;
19374;SDS011;9823;50.936;4.046;2023-02-22T06:26:17;42.13;;;17.10;;
19374;SDS011;9823;50.936;4.046;2023-02-22T06:28:43;33.33;;;16.43;;
19374;SDS011;9823;50.936;4.046;2023-02-22T06:31:09;34.07;;;17.10;;
19374;SDS011;9823;50.936;4.046;2023-02-22T06:33:35;35.40;;;18.23;;
19374;SDS011;9823;50.936;4.046;2023-02-22T06:36:04;34.63;;;17.80;;
19374;SDS011;9823;50.936;4.046;2023-02-22T06:38:30;36.43;;;17.67;;
19374;SDS011;9823;50.936;4.046;2023-02-22T06:40:57;38.10;;;17.57;;
19374;SDS011;9823;50.936;4.046;2023-02-22T06:43:23;44.60;;;18.00;;
19374;SDS011;9823;50.936;4.046;2023-02-22T06:45:50;45.33;;;18.50;;
19374;SDS011;9823;50.936;4.046;2023-02-22T06:48:16;39.10;;;18.13;;
19374;SDS011;9823;50.936;4.046;2023-02-22T06:50:42;34.17;;;16.47;;
19374;SDS011;9823;50.936;4.046;2023-02-22T06:53:08;34.60;;;16.17;;
19374;SDS011;9823;50.936;4.046;2023-02-22T06:55:35;33.30;;;16.57;;
19374;SDS011;9823;50.936;4.046;2023-02-22T06:58:01;32.70;;;16.40;;
19374;SDS011;9823;50.936;4.046;2023-02-22T07:00:29;30.73;;;15.87;;
19374;SDS011;9823;50.936;4.046;2023-02-22T07:02:57;31.43;;;16.03;;
19374;SDS011;9823;50.936;4.046;2023-02-22T07:05:24;38.47;;;16.37;;
19374;SDS011;9823;50.936;4.046;2023-02-22T07:07:51;33.77;;;16.37;;
19374;SDS011;9823;50.936;4.046;2023-02-22T07:10:20;33.90;;;15.90;;
19374;SDS011;9823;50.936;4.046;2023-02-22T07:12:46;32.23;;;15.93;;
19374;SDS011;9823;50.936;4.046;2023-02-22T07:15:13;38.43;;;15.93;;
19374;SDS011;9823;50.936;4.046;2023-02-22T07:17:39;34.47;;;16.30;;
19374;SDS011;9823;50.936;4.046;2023-02-22T07:20:08;37.60;;;17.13;;
19374;SDS011;9823;50.936;4.046;2023-02-22T07:22:35;34.80;;;16.37;;
19374;SDS011;9823;50.936;4.046;2023-02-22T07:25:09;41.73;;;16.23;;
19374;SDS011;9823;50.936;4.046;2023-02-22T07:27:38;30.30;;;15.33;;
19374;SDS011;9823;50.936;4.046;2023-02-22T07:30:06;30.47;;;15.40;;
19374;SDS011;9823;50.936;4.046;2023-02-22T07:32:32;30.90;;;15.40;;
19374;SDS011;9823;50.936;4.046;2023-02-22T07:35:00;29.60;;;14.90;;
19374;SDS011;9823;50.936;4.046;2023-02-22T07:37:27;34.97;;;15.80;;
19374;SDS011;9823;50.936;4.046;2023-02-22T07:39:53;32.67;;;15.87;;
19374;SDS011;9823;50.936;4.046;2023-02-22T07:42:22;32.13;;;14.57;;
19374;SDS011;9823;50.936;4.046;2023-02-22T07:44:48;28.70;;;14.87;;
19374;SDS011;9823;50.936;4.046;2023-02-22T07:47:14;33.27;;;14.73;;
19374;SDS011;9823;50.936;4.046;2023-02-22T07:49:40;31.03;;;13.53;;
19374;SDS011;9823;50.936;4.046;2023-02-22T07:52:08;36.37;;;15.40;;
19374;SDS011;9823;50.936;4.046;2023-02-22T07:54:36;33.43;;;14.97;;
19374;SDS011;9823;50.936;4.046;2023-02-22T07:57:05;23.70;;;13.90;;
19374;SDS011;9823;50.936;4.046;2023-02-22T07:59:33;24.57;;;13.10;;
19374;SDS011;9823;50.936;4.046;2023-02-22T08:01:59;25.67;;;13.77;;
19374;SDS011;9823;50.936;4.046;2023-02-22T08:04:25;28.47;;;14.43;;
19374;SDS011;9823;50.936;4.046;2023-02-22T08:06:51;27.80;;;13.23;;
19374;SDS011;9823;50.936;4.046;2023-02-22T08:09:17;25.13;;;13.07;;
19374;SDS011;9823;50.936;4.046;2023-02-22T08:11:43;33.73;;;14.30;;
19374;SDS011;9823;50.936;4.046;2023-02-22T08:14:09;26.90;;;14.27;;
19374;SDS011;9823;50.936;4.046;2023-02-22T08:16:35;29.80;;;14.97;;
19374;SDS011;9823;50.936;4.046;2023-02-22T08:19:03;34.57;;;15.10;;
19374;SDS011;9823;50.936;4.046;2023-02-22T08:21:30;26.30;;;13.93;;
19374;SDS011;9823;50.936;4.046;2023-02-22T08:23:56;24.60;;;13.97;;
19374;SDS011;9823;50.936;4.046;2023-02-22T08:26:22;27.37;;;14.23;;
19374;SDS011;9823;50.936;4.046;2023-02-22T08:29:16;26.27;;;13.73;;
19374;SDS011;9823;50.936;4.046;2023-02-22T08:31:53;32.20;;;13.93;;
19374;SDS011;9823;50.936;4.046;2023-02-22T08:34:26;28.63;;;13.80;;
19374;SDS011;9823;50.936;4.046;2023-02-22T08:36:52;25.97;;;14.43;;
19374;SDS011;9823;50.936;4.046;2023-02-22T08:39:20;26.30;;;14.20;;
19374;SDS011;9823;50.936;4.046;2023-02-22T08:41:49;25.60;;;13.80;;
19374;SDS011;9823;50.936;4.046;2023-02-22T08:44:15;24.37;;;13.70;;
19374;SDS011;9823;50.936;4.046;2023-02-22T08:46:43;29.17;;;15.07;;
19374;SDS011;9823;50.936;4.046;2023-02-22T08:49:09;27.23;;;14.17;;
19374;SDS011;9823;50.936;4.046;2023-02-22T08:51:35;26.00;;;14.23;;
19374;SDS011;9823;50.936;4.046;2023-02-22T08:54:02;26.67;;;14.77;;
19374;SDS011;9823;50.936;4.046;2023-02-22T08:56:30;23.80;;;14.23;;
19374;SDS011;9823;50.936;4.046;2023-02-22T08:58:57;29.50;;;14.67;;
19374;SDS011;9823;50.936;4.046;2023-02-22T09:01:23;25.43;;;15.03;;
19374;SDS011;9823;50.936;4.046;2023-02-22T09:03:49;23.27;;;13.40;;
19374;SDS011;9823;50.936;4.046;2023-02-22T09:06:18;25.70;;;12.50;;
19374;SDS011;9823;50.936;4.046;2023-02-22T09:08:45;27.03;;;13.20;;
19374;SDS011;9823;50.936;4.046;2023-02-22T09:11:11;21.07;;;13.23;;
19374;SDS011;9823;50.936;4.046;2023-02-22T09:13:37;27.67;;;13.13;;
19374;SDS011;9823;50.936;4.046;2023-02-22T09:16:03;31.20;;;14.47;;
19374;SDS011;9823;50.936;4.046;2023-02-22T09:18:29;26.67;;;13.33;;
19374;SDS011;9823;50.936;4.046;2023-02-22T09:20:57;22.87;;;13.03;;
19374;SDS011;9823;50.936;4.046;2023-02-22T09:23:23;26.87;;;12.87;;
19374;SDS011;9823;50.936;4.046;2023-02-22T09:25:50;32.03;;;13.70;;
19374;SDS011;9823;50.936;4.046;2023-02-22T09:28:18;25.63;;;13.43;;
19374;SDS011;9823;50.936;4.046;2023-02-22T09:30:46;26.33;;;12.87;;
19374;SDS011;9823;50.936;4.046;2023-02-22T09:33:17;26.10;;;13.33;;
19374;SDS011;9823;50.936;4.046;2023-02-22T09:35:45;26.80;;;13.87;;
19374;SDS011;9823;50.936;4.046;2023-02-22T09:38:15;26.03;;;13.93;;
19374;SDS011;9823;50.936;4.046;2023-02-22T09:40:44;40.50;;;15.43;;
19374;SDS011;9823;50.936;4.046;2023-02-22T09:48:38;27.97;;;14.23;;
19374;SDS011;9823;50.936;4.046;2023-02-22T09:51:09;24.87;;;14.07;;
19374;SDS011;9823;50.936;4.046;2023-02-22T09:53:41;26.00;;;14.43;;
19374;SDS011;9823;50.936;4.046;2023-02-22T09:56:09;39.87;;;15.63;;
19374;SDS011;9823;50.936;4.046;2023-02-22T10:06:26;29.03;;;15.07;;
19374;SDS011;9823;50.936;4.046;2023-02-22T10:08:54;25.20;;;14.10;;
19374;SDS011;9823;50.936;4.046;2023-02-22T10:14:07;32.80;;;15.27;;
19374;SDS011;9823;50.936;4.046;2023-02-22T10:16:47;28.10;;;15.20;;
19374;SDS011;9823;50.936;4.046;2023-02-22T10:19:26;38.23;;;15.90;;
19374;SDS011;9823;50.936;4.046;2023-02-22T10:27:17;25.37;;;14.40;;
19374;SDS011;9823;50.936;4.046;2023-02-22T10:29:45;31.17;;;14.93;;
19374;SDS011;9823;50.936;4.046;2023-02-22T10:32:14;29.80;;;16.03;;
19374;SDS011;9823;50.936;4.046;2023-02-22T10:34:49;28.83;;;15.90;;
19374;SDS011;9823;50.936;4.046;2023-02-22T10:37:29;34.07;;;17.23;;
19374;SDS011;9823;50.936;4.046;2023-02-22T10:39:57;28.97;;;16.50;;
19374;SDS011;9823;50.936;4.046;2023-02-22T10:42:24;25.23;;;16.47;;
19374;SDS011;9823;50.936;4.046;2023-02-22T10:44:51;36.00;;;17.50;;
19374;SDS011;9823;50.936;4.046;2023-02-22T10:47:17;35.80;;;18.43;;
19374;SDS011;9823;50.936;4.046;2023-02-22T10:49:48;31.07;;;17.90;;
19374;SDS011;9823;50.936;4.046;2023-02-22T10:52:20;36.33;;;18.57;;
19374;SDS011;9823;50.936;4.046;2023-02-22T10:54:49;33.83;;;18.00;;
19374;SDS011;9823;50.936;4.046;2023-02-22T10:57:21;28.97;;;18.70;;
19374;SDS011;9823;50.936;4.046;2023-02-22T10:59:50;32.00;;;19.07;;
19374;SDS011;9823;50.936;4.046;2023-02-22T11:02:28;29.60;;;17.13;;
19374;SDS011;9823;50.936;4.046;2023-02-22T11:04:55;34.22;;;21.02;;
19374;SDS011;9823;50.936;4.046;2023-02-22T11:07:23;36.17;;;20.30;;
19374;SDS011;9823;50.936;4.046;2023-02-22T11:12:16;32.63;;;19.93;;
19374;SDS011;9823;50.936;4.046;2023-02-22T11:14:43;35.23;;;21.10;;
19374;SDS011;9823;50.936;4.046;2023-02-22T11:17:09;36.80;;;20.50;;
19374;SDS011;9823;50.936;4.046;2023-02-22T11:19:38;44.37;;;20.67;;
19374;SDS011;9823;50.936;4.046;2023-02-22T11:22:12;33.70;;;20.07;;
19374;SDS011;9823;50.936;4.046;2023-02-22T11:24:44;41.17;;;20.90;;
19374;SDS011;9823;50.936;4.046;2023-02-22T11:29:53;39.00;;;21.10;;
19374;SDS011;9823;50.936;4.046;2023-02-22T11:32:21;44.80;;;22.33;;
19374;SDS011;9823;50.936;4.046;2023-02-22T11:34:48;44.33;;;23.17;;
19374;SDS011;9823;50.936;4.046;2023-02-22T11:40:03;40.17;;;21.80;;
19374;SDS011;9823;50.936;4.046;2023-02-22T11:42:30;32.67;;;20.97;;
19374;SDS011;9823;50.936;4.046;2023-02-22T11:45:10;36.00;;;22.43;;
19374;SDS011;9823;50.936;4.046;2023-02-22T11:50:27;35.07;;;22.83;;
19374;SDS011;9823;50.936;4.046;2023-02-22T11:55:54;41.07;;;23.47;;
19374;SDS011;9823;50.936;4.046;2023-02-22T12:01:25;50.27;;;23.93;;
19374;SDS011;9823;50.936;4.046;2023-02-22T12:09:31;39.57;;;24.30;;
19374;SDS011;9823;50.936;4.046;2023-02-22T12:20:04;38.50;;;24.00;;
19374;SDS011;9823;50.936;4.046;2023-02-22T12:22:35;40.07;;;25.30;;
19374;SDS011;9823;50.936;4.046;2023-02-22T12:25:17;43.67;;;25.90;;
19374;SDS011;9823;50.936;4.046;2023-02-22T12:27:45;40.27;;;27.03;;
19374;SDS011;9823;50.936;4.046;2023-02-22T12:30:20;45.00;;;26.47;;
19374;SDS011;9823;50.936;4.046;2023-02-22T12:32:49;41.20;;;27.60;;
19374;SDS011;9823;50.936;4.046;2023-02-22T12:35:24;44.40;;;26.83;;
19374;SDS011;9823;50.936;4.046;2023-02-22T12:40:23;46.67;;;28.73;;
19374;SDS011;9823;50.936;4.046;2023-02-22T12:45:25;49.90;;;30.70;;
19374;SDS011;9823;50.936;4.046;2023-02-22T12:47:56;47.17;;;30.20;;
19374;SDS011;9823;50.936;4.046;2023-02-22T12:50:26;48.60;;;31.27;;
19374;SDS011;9823;50.936;4.046;2023-02-22T12:53:03;50.67;;;30.77;;
19374;SDS011;9823;50.936;4.046;2023-02-22T12:55:38;49.83;;;31.13;;
19374;SDS011;9823;50.936;4.046;2023-02-22T12:58:23;49.67;;;29.73;;
19374;SDS011;9823;50.936;4.046;2023-02-22T13:00:55;56.37;;;30.20;;
19374;SDS011;9823;50.936;4.046;2023-02-22T13:08:47;52.97;;;31.97;;
19374;SDS011;9823;50.936;4.046;2023-02-22T13:13:54;50.23;;;30.20;;
19374;SDS011;9823;50.936;4.046;2023-02-22T13:19:32;48.57;;;30.40;;
19374;SDS011;9823;50.936;4.046;2023-02-22T13:29:23;54.03;;;30.40;;
19374;SDS011;9823;50.936;4.046;2023-02-22T13:37:40;55.07;;;31.97;;
19374;SDS011;9823;50.936;4.046;2023-02-22T13:48:56;50.53;;;31.40;;
19374;SDS011;9823;50.936;4.046;2023-02-22T13:56:45;53.20;;;31.90;;
19374;SDS011;9823;50.936;4.046;2023-02-22T13:59:23;56.70;;;33.33;;
19374;SDS011;9823;50.936;4.046;2023-02-22T14:01:50;66.60;;;33.93;;
19374;SDS011;9823;50.936;4.046;2023-02-22T14:06:52;56.07;;;31.83;;
19374;SDS011;9823;50.936;4.046;2023-02-22T14:12:03;59.97;;;33.13;;
19374;SDS011;9823;50.936;4.046;2023-02-22T14:14:33;60.43;;;33.27;;
19374;SDS011;9823;50.936;4.046;2023-02-22T14:17:15;62.07;;;33.30;;
19374;SDS011;9823;50.936;4.046;2023-02-22T14:19:41;54.07;;;32.33;;
19374;SDS011;9823;50.936;4.046;2023-02-22T14:22:23;59.13;;;34.30;;
19374;SDS011;9823;50.936;4.046;2023-02-22T14:24:50;61.63;;;33.60;;
19374;SDS011;9823;50.936;4.046;2023-02-22T14:27:16;63.17;;;34.20;;
19374;SDS011;9823;50.936;4.046;2023-02-22T14:29:49;62.37;;;34.07;;
19374;SDS011;9823;50.936;4.046;2023-02-22T14:32:18;63.03;;;33.83;;
19374;SDS011;9823;50.936;4.046;2023-02-22T14:34:57;70.43;;;35.90;;
19374;SDS011;9823;50.936;4.046;2023-02-22T14:37:26;63.97;;;35.87;;
19374;SDS011;9823;50.936;4.046;2023-02-22T14:40:05;65.10;;;34.07;;
19374;SDS011;9823;50.936;4.046;2023-02-22T14:42:50;60.83;;;34.43;;
19374;SDS011;9823;50.936;4.046;2023-02-22T14:45:24;67.97;;;34.87;;
19374;SDS011;9823;50.936;4.046;2023-02-22T14:55:36;74.20;;;37.63;;
19374;SDS011;9823;50.936;4.046;2023-02-22T14:58:12;84.33;;;39.67;;
19374;SDS011;9823;50.936;4.046;2023-02-22T15:00:43;79.90;;;40.83;;
19374;SDS011;9823;50.936;4.046;2023-02-22T15:06:09;87.53;;;41.43;;
19374;SDS011;9823;50.936;4.046;2023-02-22T15:08:41;87.73;;;41.23;;
19374;SDS011;9823;50.936;4.046;2023-02-22T15:11:26;95.83;;;41.57;;
19374;SDS011;9823;50.936;4.046;2023-02-22T15:13:59;86.07;;;42.00;;
19374;SDS011;9823;50.936;4.046;2023-02-22T15:16:26;82.77;;;40.27;;
19374;SDS011;9823;50.936;4.046;2023-02-22T15:18:57;79.43;;;40.83;;
19374;SDS011;9823;50.936;4.046;2023-02-22T15:21:25;88.47;;;40.63;;
19374;SDS011;9823;50.936;4.046;2023-02-22T15:23:55;84.40;;;39.50;;
19374;SDS011;9823;50.936;4.046;2023-02-22T15:28:59;75.77;;;37.87;;
19374;SDS011;9823;50.936;4.046;2023-02-22T15:31:28;83.17;;;37.90;;
19374;SDS011;9823;50.936;4.046;2023-02-22T15:33:55;74.00;;;37.27;;
19374;SDS011;9823;50.936;4.046;2023-02-22T15:36:24;78.70;;;37.33;;
19374;SDS011;9823;50.936;4.046;2023-02-22T15:38:52;77.20;;;37.13;;
19374;SDS011;9823;50.936;4.046;2023-02-22T15:41:27;77.33;;;37.37;;
19374;SDS011;9823;50.936;4.046;2023-02-22T15:44:01;85.90;;;39.37;;
19374;SDS011;9823;50.936;4.046;2023-02-22T15:46:30;76.97;;;38.67;;
19374;SDS011;9823;50.936;4.046;2023-02-22T15:49:15;79.83;;;39.37;;
19374;SDS011;9823;50.936;4.046;2023-02-22T15:51:43;75.13;;;37.10;;
19374;SDS011;9823;50.936;4.046;2023-02-22T15:54:10;83.43;;;38.73;;
19374;SDS011;9823;50.936;4.046;2023-02-22T15:56:40;78.60;;;38.40;;
19374;SDS011;9823;50.936;4.046;2023-02-22T15:59:16;83.90;;;39.90;;
19374;SDS011;9823;50.936;4.046;2023-02-22T16:01:44;77.47;;;36.80;;
19374;SDS011;9823;50.936;4.046;2023-02-22T16:04:14;75.97;;;37.07;;
19374;SDS011;9823;50.936;4.046;2023-02-22T16:06:42;75.77;;;37.80;;
19374;SDS011;9823;50.936;4.046;2023-02-22T16:09:09;79.90;;;37.77;;
19374;SDS011;9823;50.936;4.046;2023-02-22T16:11:40;76.47;;;38.27;;
19374;SDS011;9823;50.936;4.046;2023-02-22T16:19:38;79.27;;;38.50;;
19374;SDS011;9823;50.936;4.046;2023-02-22T16:22:06;76.53;;;37.60;;
19374;SDS011;9823;50.936;4.046;2023-02-22T16:24:38;81.07;;;38.60;;
19374;SDS011;9823;50.936;4.046;2023-02-22T16:29:39;76.23;;;38.70;;
19374;SDS011;9823;50.936;4.046;2023-02-22T16:32:07;78.47;;;38.10;;
19374;SDS011;9823;50.936;4.046;2023-02-22T16:34:34;81.77;;;39.20;;
19374;SDS011;9823;50.936;4.046;2023-02-22T16:37:00;79.67;;;39.73;;
19374;SDS011;9823;50.936;4.046;2023-02-22T16:39:29;78.10;;;40.27;;
19374;SDS011;9823;50.936;4.046;2023-02-22T16:41:57;80.47;;;40.37;;
19374;SDS011;9823;50.936;4.046;2023-02-22T16:44:23;86.77;;;41.20;;
19374;SDS011;9823;50.936;4.046;2023-02-22T16:46:51;84.77;;;39.20;;
19374;SDS011;9823;50.936;4.046;2023-02-22T16:49:17;82.23;;;38.83;;
19374;SDS011;9823;50.936;4.046;2023-02-22T16:51:46;81.77;;;39.63;;
19374;SDS011;9823;50.936;4.046;2023-02-22T16:54:18;81.23;;;38.93;;
19374;SDS011;9823;50.936;4.046;2023-02-22T16:56:45;79.43;;;39.30;;
19374;SDS011;9823;50.936;4.046;2023-02-22T16:59:14;82.23;;;39.17;;
19374;SDS011;9823;50.936;4.046;2023-02-22T17:01:40;80.03;;;37.50;;
19374;SDS011;9823;50.936;4.046;2023-02-22T17:04:14;83.60;;;38.67;;
19374;SDS011;9823;50.936;4.046;2023-02-22T17:06:40;86.80;;;39.67;;
19374;SDS011;9823;50.936;4.046;2023-02-22T17:09:06;82.00;;;37.53;;
19374;SDS011;9823;50.936;4.046;2023-02-22T17:11:32;88.43;;;39.57;;
19374;SDS011;9823;50.936;4.046;2023-02-22T17:13:59;81.33;;;38.93;;
19374;SDS011;9823;50.936;4.046;2023-02-22T17:16:26;81.33;;;39.37;;